sensor_id;sensor_type;location;lat;lon;timestamp;P1;durP1;ratioP1;P2;durP2;ratioP2
11731;SDS011;5922;53.734;10.258;2023-11-22T00:01:37;2.43;;;2.00;;
11731;SDS011;5922;53.734;10.258;2023-11-22T00:04:08;3.23;;;1.90;;
11731;SDS011;5922;53.734;10.258;2023-11-22T00:06:35;2.23;;;2.00;;
11731;SDS011;5922;53.734;10.258;2023-11-22T00:09:10;2.60;;;2.10;;
11731;SDS011;5922;53.734;10.258;2023-11-22T00:11:39;3.13;;;2.00;;
11731;SDS011;5922;53.734;10.258;2023-11-22T00:14:11;2.60;;;2.03;;
11731;SDS011;5922;53.734;10.258;2023-11-22T00:16:40;3.00;;;2.13;;
11731;SDS011;5922;53.734;10.258;2023-11-22T00:19:10;2.90;;;2.33;;
11731;SDS011;5922;53.734;10.258;2023-11-22T00:21:43;2.20;;;2.00;;
11731;SDS011;5922;53.734;10.258;2023-11-22T00:24:13;2.20;;;2.00;;
11731;SDS011;5922;53.734;10.258;2023-11-22T00:26:46;3.23;;;2.17;;
11731;SDS011;5922;53.734;10.258;2023-11-22T00:29:15;2.53;;;2.07;;
11731;SDS011;5922;53.734;10.258;2023-11-22T00:31:42;3.23;;;2.20;;
11731;SDS011;5922;53.734;10.258;2023-11-22T00:34:12;2.40;;;2.10;;
11731;SDS011;5922;53.734;10.258;2023-11-22T00:36:45;3.23;;;2.30;;
11731;SDS011;5922;53.734;10.258;2023-11-22T00:39:21;2.17;;;1.97;;
11731;SDS011;5922;53.734;10.258;2023-11-22T00:41:49;3.53;;;2.20;;
11731;SDS011;5922;53.734;10.258;2023-11-22T00:44:18;2.40;;;2.20;;
11731;SDS011;5922;53.734;10.258;2023-11-22T00:46:45;3.63;;;2.30;;
11731;SDS011;5922;53.734;10.258;2023-11-22T00:49:12;2.57;;;2.20;;
11731;SDS011;5922;53.734;10.258;2023-11-22T00:51:39;2.87;;;2.57;;
11731;SDS011;5922;53.734;10.258;2023-11-22T00:54:07;3.20;;;1.93;;
11731;SDS011;5922;53.734;10.258;2023-11-22T00:56:34;3.93;;;2.40;;
11731;SDS011;5922;53.734;10.258;2023-11-22T00:59:02;3.03;;;2.50;;
11731;SDS011;5922;53.734;10.258;2023-11-22T01:01:31;2.40;;;2.20;;
11731;SDS011;5922;53.734;10.258;2023-11-22T01:04:00;1.93;;;1.73;;
11731;SDS011;5922;53.734;10.258;2023-11-22T01:06:29;3.40;;;2.83;;
11731;SDS011;5922;53.734;10.258;2023-11-22T01:08:59;4.83;;;2.50;;
11731;SDS011;5922;53.734;10.258;2023-11-22T01:11:37;2.63;;;2.30;;
11731;SDS011;5922;53.734;10.258;2023-11-22T01:14:05;4.50;;;2.60;;
11731;SDS011;5922;53.734;10.258;2023-11-22T01:16:36;3.20;;;2.33;;
11731;SDS011;5922;53.734;10.258;2023-11-22T01:19:08;2.77;;;2.47;;
11731;SDS011;5922;53.734;10.258;2023-11-22T01:21:38;2.50;;;2.30;;
11731;SDS011;5922;53.734;10.258;2023-11-22T01:24:09;2.97;;;2.40;;
11731;SDS011;5922;53.734;10.258;2023-11-22T01:26:39;3.13;;;2.57;;
11731;SDS011;5922;53.734;10.258;2023-11-22T01:29:06;2.63;;;2.23;;
11731;SDS011;5922;53.734;10.258;2023-11-22T01:31:35;2.40;;;2.20;;
11731;SDS011;5922;53.734;10.258;2023-11-22T01:34:04;2.83;;;2.47;;
11731;SDS011;5922;53.734;10.258;2023-11-22T01:36:34;3.27;;;2.23;;
11731;SDS011;5922;53.734;10.258;2023-11-22T01:39:01;2.20;;;1.93;;
11731;SDS011;5922;53.734;10.258;2023-11-22T01:41:29;2.73;;;2.53;;
11731;SDS011;5922;53.734;10.258;2023-11-22T01:43:58;2.70;;;2.40;;
11731;SDS011;5922;53.734;10.258;2023-11-22T01:46:25;3.13;;;2.30;;
11731;SDS011;5922;53.734;10.258;2023-11-22T01:48:53;3.83;;;2.37;;
11731;SDS011;5922;53.734;10.258;2023-11-22T01:51:22;2.50;;;2.30;;
11731;SDS011;5922;53.734;10.258;2023-11-22T01:53:54;2.90;;;2.53;;
11731;SDS011;5922;53.734;10.258;2023-11-22T01:56:23;2.80;;;2.47;;
11731;SDS011;5922;53.734;10.258;2023-11-22T01:58:51;4.57;;;2.57;;
11731;SDS011;5922;53.734;10.258;2023-11-22T02:01:19;3.03;;;2.20;;
11731;SDS011;5922;53.734;10.258;2023-11-22T02:03:50;2.27;;;2.07;;
11731;SDS011;5922;53.734;10.258;2023-11-22T02:06:18;2.93;;;2.10;;
11731;SDS011;5922;53.734;10.258;2023-11-22T02:08:50;4.30;;;2.60;;
11731;SDS011;5922;53.734;10.258;2023-11-22T02:11:26;3.83;;;2.60;;
11731;SDS011;5922;53.734;10.258;2023-11-22T02:13:54;3.27;;;2.40;;
11731;SDS011;5922;53.734;10.258;2023-11-22T02:16:21;2.90;;;2.20;;
11731;SDS011;5922;53.734;10.258;2023-11-22T02:18:49;2.77;;;2.20;;
11731;SDS011;5922;53.734;10.258;2023-11-22T02:21:16;3.30;;;2.43;;
11731;SDS011;5922;53.734;10.258;2023-11-22T02:23:48;3.30;;;2.43;;
11731;SDS011;5922;53.734;10.258;2023-11-22T02:26:23;2.20;;;2.00;;
11731;SDS011;5922;53.734;10.258;2023-11-22T02:28:50;2.67;;;2.40;;
11731;SDS011;5922;53.734;10.258;2023-11-22T02:31:18;4.20;;;2.30;;
11731;SDS011;5922;53.734;10.258;2023-11-22T02:33:45;3.80;;;2.40;;
11731;SDS011;5922;53.734;10.258;2023-11-22T02:36:15;2.47;;;2.27;;
11731;SDS011;5922;53.734;10.258;2023-11-22T02:38:42;5.03;;;2.20;;
11731;SDS011;5922;53.734;10.258;2023-11-22T02:41:12;3.07;;;2.40;;
11731;SDS011;5922;53.734;10.258;2023-11-22T02:43:40;3.40;;;2.47;;
11731;SDS011;5922;53.734;10.258;2023-11-22T02:46:08;2.40;;;2.20;;
11731;SDS011;5922;53.734;10.258;2023-11-22T02:48:35;6.07;;;2.50;;
11731;SDS011;5922;53.734;10.258;2023-11-22T02:51:03;3.70;;;2.30;;
11731;SDS011;5922;53.734;10.258;2023-11-22T02:53:31;4.50;;;2.30;;
11731;SDS011;5922;53.734;10.258;2023-11-22T02:55:59;5.00;;;2.80;;
11731;SDS011;5922;53.734;10.258;2023-11-22T02:58:31;4.70;;;2.67;;
11731;SDS011;5922;53.734;10.258;2023-11-22T03:00:59;5.20;;;2.70;;
11731;SDS011;5922;53.734;10.258;2023-11-22T03:03:29;3.37;;;2.70;;
11731;SDS011;5922;53.734;10.258;2023-11-22T03:05:59;4.13;;;2.77;;
11731;SDS011;5922;53.734;10.258;2023-11-22T03:08:26;3.80;;;2.50;;
11731;SDS011;5922;53.734;10.258;2023-11-22T03:10:54;3.30;;;2.70;;
11731;SDS011;5922;53.734;10.258;2023-11-22T03:13:21;4.13;;;2.60;;
11731;SDS011;5922;53.734;10.258;2023-11-22T03:15:53;2.83;;;2.43;;
11731;SDS011;5922;53.734;10.258;2023-11-22T03:18:20;3.90;;;2.33;;
11731;SDS011;5922;53.734;10.258;2023-11-22T03:20:48;3.83;;;3.00;;
11731;SDS011;5922;53.734;10.258;2023-11-22T03:23:19;4.17;;;2.87;;
11731;SDS011;5922;53.734;10.258;2023-11-22T03:25:46;3.20;;;2.53;;
11731;SDS011;5922;53.734;10.258;2023-11-22T03:28:14;3.17;;;2.80;;
11731;SDS011;5922;53.734;10.258;2023-11-22T03:30:44;4.30;;;2.80;;
11731;SDS011;5922;53.734;10.258;2023-11-22T03:33:13;3.27;;;2.97;;
11731;SDS011;5922;53.734;10.258;2023-11-22T03:35:45;3.27;;;2.53;;
11731;SDS011;5922;53.734;10.258;2023-11-22T03:38:19;3.20;;;2.90;;
11731;SDS011;5922;53.734;10.258;2023-11-22T03:40:49;5.27;;;2.77;;
11731;SDS011;5922;53.734;10.258;2023-11-22T03:43:16;3.57;;;2.43;;
11731;SDS011;5922;53.734;10.258;2023-11-22T03:45:43;3.77;;;2.77;;
11731;SDS011;5922;53.734;10.258;2023-11-22T03:48:14;3.83;;;2.70;;
11731;SDS011;5922;53.734;10.258;2023-11-22T03:50:42;3.17;;;2.60;;
11731;SDS011;5922;53.734;10.258;2023-11-22T03:53:09;2.63;;;2.30;;
11731;SDS011;5922;53.734;10.258;2023-11-22T03:55:38;3.70;;;2.90;;
11731;SDS011;5922;53.734;10.258;2023-11-22T03:58:06;3.70;;;2.80;;
11731;SDS011;5922;53.734;10.258;2023-11-22T04:00:33;8.37;;;6.47;;
11731;SDS011;5922;53.734;10.258;2023-11-22T04:03:01;4.77;;;2.80;;
11731;SDS011;5922;53.734;10.258;2023-11-22T04:05:28;3.13;;;2.63;;
11731;SDS011;5922;53.734;10.258;2023-11-22T04:07:57;3.73;;;2.73;;
11731;SDS011;5922;53.734;10.258;2023-11-22T04:10:24;4.67;;;3.43;;
11731;SDS011;5922;53.734;10.258;2023-11-22T04:12:53;2.87;;;2.57;;
11731;SDS011;5922;53.734;10.258;2023-11-22T04:15:23;6.27;;;3.07;;
11731;SDS011;5922;53.734;10.258;2023-11-22T04:17:52;4.17;;;3.10;;
11731;SDS011;5922;53.734;10.258;2023-11-22T04:20:20;4.20;;;3.20;;
11731;SDS011;5922;53.734;10.258;2023-11-22T04:22:54;3.27;;;2.70;;
11731;SDS011;5922;53.734;10.258;2023-11-22T04:25:22;6.13;;;4.30;;
11731;SDS011;5922;53.734;10.258;2023-11-22T04:27:52;5.47;;;3.80;;
11731;SDS011;5922;53.734;10.258;2023-11-22T04:30:19;3.10;;;2.80;;
11731;SDS011;5922;53.734;10.258;2023-11-22T04:32:51;3.03;;;2.73;;
11731;SDS011;5922;53.734;10.258;2023-11-22T04:35:19;3.63;;;2.80;;
11731;SDS011;5922;53.734;10.258;2023-11-22T04:37:51;2.97;;;2.67;;
11731;SDS011;5922;53.734;10.258;2023-11-22T04:40:21;3.07;;;2.40;;
11731;SDS011;5922;53.734;10.258;2023-11-22T04:42:49;3.00;;;2.70;;
11731;SDS011;5922;53.734;10.258;2023-11-22T04:45:18;4.47;;;3.23;;
11731;SDS011;5922;53.734;10.258;2023-11-22T04:47:51;3.30;;;3.00;;
11731;SDS011;5922;53.734;10.258;2023-11-22T04:50:22;3.00;;;2.30;;
11731;SDS011;5922;53.734;10.258;2023-11-22T04:52:56;5.07;;;2.73;;
11731;SDS011;5922;53.734;10.258;2023-11-22T04:55:26;4.47;;;2.57;;
11731;SDS011;5922;53.734;10.258;2023-11-22T04:57:59;2.83;;;2.33;;
11731;SDS011;5922;53.734;10.258;2023-11-22T05:00:29;2.60;;;2.40;;
11731;SDS011;5922;53.734;10.258;2023-11-22T05:02:57;3.27;;;2.77;;
11731;SDS011;5922;53.734;10.258;2023-11-22T05:05:26;3.80;;;2.77;;
11731;SDS011;5922;53.734;10.258;2023-11-22T05:07:57;4.30;;;2.70;;
11731;SDS011;5922;53.734;10.258;2023-11-22T05:10:31;6.23;;;2.60;;
11731;SDS011;5922;53.734;10.258;2023-11-22T05:12:59;3.47;;;2.97;;
11731;SDS011;5922;53.734;10.258;2023-11-22T05:15:30;2.90;;;2.60;;
11731;SDS011;5922;53.734;10.258;2023-11-22T05:18:03;4.03;;;2.93;;
11731;SDS011;5922;53.734;10.258;2023-11-22T05:20:31;4.60;;;2.83;;
11731;SDS011;5922;53.734;10.258;2023-11-22T05:22:59;2.90;;;2.60;;
11731;SDS011;5922;53.734;10.258;2023-11-22T05:25:27;3.60;;;2.80;;
11731;SDS011;5922;53.734;10.258;2023-11-22T05:28:05;3.73;;;3.03;;
11731;SDS011;5922;53.734;10.258;2023-11-22T05:30:35;3.47;;;2.80;;
11731;SDS011;5922;53.734;10.258;2023-11-22T05:33:02;4.00;;;3.23;;
11731;SDS011;5922;53.734;10.258;2023-11-22T05:35:32;4.83;;;3.53;;
11731;SDS011;5922;53.734;10.258;2023-11-22T05:38:06;4.50;;;3.80;;
11731;SDS011;5922;53.734;10.258;2023-11-22T05:40:33;5.33;;;4.20;;
11731;SDS011;5922;53.734;10.258;2023-11-22T05:43:04;4.13;;;3.43;;
11731;SDS011;5922;53.734;10.258;2023-11-22T05:45:33;5.73;;;3.40;;
11731;SDS011;5922;53.734;10.258;2023-11-22T05:48:02;3.53;;;3.20;;
11731;SDS011;5922;53.734;10.258;2023-11-22T05:50:34;4.13;;;3.40;;
11731;SDS011;5922;53.734;10.258;2023-11-22T05:53:01;6.60;;;3.93;;
11731;SDS011;5922;53.734;10.258;2023-11-22T05:55:31;5.53;;;3.50;;
11731;SDS011;5922;53.734;10.258;2023-11-22T05:57:59;3.70;;;3.10;;
11731;SDS011;5922;53.734;10.258;2023-11-22T06:00:31;6.07;;;3.50;;
11731;SDS011;5922;53.734;10.258;2023-11-22T06:02:58;3.70;;;3.30;;
11731;SDS011;5922;53.734;10.258;2023-11-22T06:05:25;9.13;;;3.50;;
11731;SDS011;5922;53.734;10.258;2023-11-22T06:07:55;4.53;;;3.40;;
11731;SDS011;5922;53.734;10.258;2023-11-22T06:10:28;4.13;;;3.70;;
11731;SDS011;5922;53.734;10.258;2023-11-22T06:13:01;4.67;;;3.40;;
11731;SDS011;5922;53.734;10.258;2023-11-22T06:15:36;4.83;;;3.87;;
11731;SDS011;5922;53.734;10.258;2023-11-22T06:18:04;5.57;;;3.60;;
11731;SDS011;5922;53.734;10.258;2023-11-22T06:20:36;4.30;;;3.80;;
11731;SDS011;5922;53.734;10.258;2023-11-22T06:23:03;6.83;;;3.60;;
11731;SDS011;5922;53.734;10.258;2023-11-22T06:25:36;6.40;;;4.00;;
11731;SDS011;5922;53.734;10.258;2023-11-22T06:28:15;5.00;;;3.77;;
11731;SDS011;5922;53.734;10.258;2023-11-22T06:30:47;4.77;;;3.50;;
11731;SDS011;5922;53.734;10.258;2023-11-22T06:33:21;5.27;;;3.87;;
11731;SDS011;5922;53.734;10.258;2023-11-22T06:36:10;5.53;;;4.03;;
11731;SDS011;5922;53.734;10.258;2023-11-22T06:38:39;4.27;;;3.50;;
11731;SDS011;5922;53.734;10.258;2023-11-22T06:41:11;4.13;;;3.63;;
11731;SDS011;5922;53.734;10.258;2023-11-22T06:43:41;4.37;;;3.63;;
11731;SDS011;5922;53.734;10.258;2023-11-22T06:46:13;4.63;;;3.93;;
11731;SDS011;5922;53.734;10.258;2023-11-22T06:48:55;6.37;;;3.90;;
11731;SDS011;5922;53.734;10.258;2023-11-22T06:51:32;4.50;;;3.43;;
11731;SDS011;5922;53.734;10.258;2023-11-22T06:54:18;5.00;;;4.00;;
11731;SDS011;5922;53.734;10.258;2023-11-22T06:56:46;6.23;;;4.37;;
11731;SDS011;5922;53.734;10.258;2023-11-22T06:59:27;4.50;;;3.73;;
11731;SDS011;5922;53.734;10.258;2023-11-22T07:01:59;5.57;;;4.00;;
11731;SDS011;5922;53.734;10.258;2023-11-22T07:04:32;4.43;;;3.77;;
11731;SDS011;5922;53.734;10.258;2023-11-22T07:07:12;5.43;;;3.97;;
11731;SDS011;5922;53.734;10.258;2023-11-22T07:09:42;5.50;;;4.10;;
11731;SDS011;5922;53.734;10.258;2023-11-22T07:12:13;5.80;;;3.93;;
11731;SDS011;5922;53.734;10.258;2023-11-22T07:14:41;5.83;;;4.33;;
11731;SDS011;5922;53.734;10.258;2023-11-22T07:17:14;5.80;;;4.70;;
11731;SDS011;5922;53.734;10.258;2023-11-22T07:19:52;7.77;;;4.40;;
11731;SDS011;5922;53.734;10.258;2023-11-22T07:22:27;4.93;;;4.00;;
11731;SDS011;5922;53.734;10.258;2023-11-22T07:24:55;5.57;;;4.10;;
11731;SDS011;5922;53.734;10.258;2023-11-22T07:27:26;5.53;;;4.67;;
11731;SDS011;5922;53.734;10.258;2023-11-22T07:29:54;7.27;;;4.63;;
11731;SDS011;5922;53.734;10.258;2023-11-22T07:32:34;14.73;;;9.93;;
11731;SDS011;5922;53.734;10.258;2023-11-22T07:35:12;16.73;;;11.17;;
11731;SDS011;5922;53.734;10.258;2023-11-22T07:37:56;11.63;;;8.17;;
11731;SDS011;5922;53.734;10.258;2023-11-22T07:40:33;11.63;;;7.50;;
11731;SDS011;5922;53.734;10.258;2023-11-22T07:43:07;12.00;;;7.37;;
11731;SDS011;5922;53.734;10.258;2023-11-22T07:45:44;9.83;;;6.20;;
11731;SDS011;5922;53.734;10.258;2023-11-22T07:51:13;6.77;;;5.30;;
11731;SDS011;5922;53.734;10.258;2023-11-22T07:53:53;7.03;;;5.10;;
11731;SDS011;5922;53.734;10.258;2023-11-22T07:56:29;7.23;;;5.20;;
11731;SDS011;5922;53.734;10.258;2023-11-22T07:59:05;7.70;;;5.07;;
11731;SDS011;5922;53.734;10.258;2023-11-22T08:01:47;7.67;;;4.83;;
11731;SDS011;5922;53.734;10.258;2023-11-22T08:04:28;7.53;;;4.77;;
11731;SDS011;5922;53.734;10.258;2023-11-22T08:07:21;7.50;;;5.33;;
11731;SDS011;5922;53.734;10.258;2023-11-22T08:09:56;6.93;;;4.93;;
11731;SDS011;5922;53.734;10.258;2023-11-22T08:12:40;6.70;;;5.17;;
11731;SDS011;5922;53.734;10.258;2023-11-22T08:15:13;19.27;;;6.17;;
11731;SDS011;5922;53.734;10.258;2023-11-22T08:17:53;7.50;;;5.53;;
11731;SDS011;5922;53.734;10.258;2023-11-22T08:20:30;7.57;;;5.83;;
11731;SDS011;5922;53.734;10.258;2023-11-22T08:23:03;9.57;;;6.53;;
11731;SDS011;5922;53.734;10.258;2023-11-22T08:25:41;13.33;;;8.83;;
11731;SDS011;5922;53.734;10.258;2023-11-22T08:28:31;11.50;;;8.43;;
11731;SDS011;5922;53.734;10.258;2023-11-22T08:31:25;11.70;;;7.50;;
11731;SDS011;5922;53.734;10.258;2023-11-22T08:34:00;6.53;;;5.60;;
11731;SDS011;5922;53.734;10.258;2023-11-22T08:39:24;5.23;;;4.10;;
11731;SDS011;5922;53.734;10.258;2023-11-22T08:42:07;6.00;;;3.87;;
11731;SDS011;5922;53.734;10.258;2023-11-22T08:44:38;4.90;;;3.70;;
11731;SDS011;5922;53.734;10.258;2023-11-22T08:47:25;5.30;;;3.13;;
11731;SDS011;5922;53.734;10.258;2023-11-22T08:49:58;6.07;;;3.63;;
11731;SDS011;5922;53.734;10.258;2023-11-22T08:52:34;5.00;;;3.63;;
11731;SDS011;5922;53.734;10.258;2023-11-22T08:55:22;5.83;;;4.13;;
11731;SDS011;5922;53.734;10.258;2023-11-22T08:58:00;5.30;;;3.77;;
11731;SDS011;5922;53.734;10.258;2023-11-22T09:00:33;4.83;;;3.87;;
11731;SDS011;5922;53.734;10.258;2023-11-22T09:03:24;8.10;;;4.70;;
11731;SDS011;5922;53.734;10.258;2023-11-22T09:06:00;6.03;;;4.30;;
11731;SDS011;5922;53.734;10.258;2023-11-22T09:08:37;6.70;;;4.40;;
11731;SDS011;5922;53.734;10.258;2023-11-22T09:14:13;5.90;;;4.63;;
11731;SDS011;5922;53.734;10.258;2023-11-22T09:17:02;5.53;;;4.47;;
11731;SDS011;5922;53.734;10.258;2023-11-22T09:19:43;4.40;;;3.90;;
11731;SDS011;5922;53.734;10.258;2023-11-22T09:22:21;5.50;;;4.20;;
11731;SDS011;5922;53.734;10.258;2023-11-22T09:25:10;7.50;;;3.77;;
11731;SDS011;5922;53.734;10.258;2023-11-22T09:27:57;4.43;;;3.60;;
11731;SDS011;5922;53.734;10.258;2023-11-22T09:30:40;5.77;;;4.10;;
11731;SDS011;5922;53.734;10.258;2023-11-22T09:33:20;7.47;;;3.93;;
11731;SDS011;5922;53.734;10.258;2023-11-22T09:35:50;8.80;;;5.53;;
11731;SDS011;5922;53.734;10.258;2023-11-22T09:38:30;24.60;;;15.43;;
11731;SDS011;5922;53.734;10.258;2023-11-22T09:41:06;8.27;;;5.50;;
11731;SDS011;5922;53.734;10.258;2023-11-22T09:43:36;6.23;;;5.10;;
11731;SDS011;5922;53.734;10.258;2023-11-22T09:46:08;6.17;;;5.10;;
11731;SDS011;5922;53.734;10.258;2023-11-22T09:48:39;11.63;;;4.67;;
11731;SDS011;5922;53.734;10.258;2023-11-22T09:51:15;7.47;;;5.10;;
11731;SDS011;5922;53.734;10.258;2023-11-22T09:53:51;8.43;;;5.00;;
11731;SDS011;5922;53.734;10.258;2023-11-22T09:56:19;8.37;;;5.43;;
11731;SDS011;5922;53.734;10.258;2023-11-22T09:58:46;7.53;;;4.90;;
11731;SDS011;5922;53.734;10.258;2023-11-22T10:01:18;6.90;;;3.97;;
11731;SDS011;5922;53.734;10.258;2023-11-22T10:03:48;6.13;;;4.27;;
11731;SDS011;5922;53.734;10.258;2023-11-22T10:06:36;6.93;;;4.10;;
11731;SDS011;5922;53.734;10.258;2023-11-22T10:09:24;6.33;;;4.20;;
11731;SDS011;5922;53.734;10.258;2023-11-22T10:12:06;9.37;;;3.97;;
11731;SDS011;5922;53.734;10.258;2023-11-22T10:14:34;14.77;;;4.07;;
11731;SDS011;5922;53.734;10.258;2023-11-22T10:17:06;6.70;;;3.60;;
11731;SDS011;5922;53.734;10.258;2023-11-22T10:19:40;5.03;;;3.60;;
11731;SDS011;5922;53.734;10.258;2023-11-22T10:22:10;6.67;;;3.37;;
11731;SDS011;5922;53.734;10.258;2023-11-22T10:24:42;5.00;;;3.53;;
11731;SDS011;5922;53.734;10.258;2023-11-22T10:27:11;6.43;;;3.70;;
11731;SDS011;5922;53.734;10.258;2023-11-22T10:29:41;5.43;;;3.83;;
11731;SDS011;5922;53.734;10.258;2023-11-22T10:32:15;5.10;;;4.00;;
11731;SDS011;5922;53.734;10.258;2023-11-22T10:34:48;4.50;;;3.70;;
11731;SDS011;5922;53.734;10.258;2023-11-22T10:37:15;5.67;;;4.03;;
11731;SDS011;5922;53.734;10.258;2023-11-22T10:39:46;3.40;;;3.10;;
11731;SDS011;5922;53.734;10.258;2023-11-22T10:42:27;4.40;;;3.60;;
11731;SDS011;5922;53.734;10.258;2023-11-22T10:44:54;5.23;;;3.57;;
11731;SDS011;5922;53.734;10.258;2023-11-22T10:47:24;3.33;;;3.00;;
11731;SDS011;5922;53.734;10.258;2023-11-22T10:49:55;5.57;;;3.80;;
11731;SDS011;5922;53.734;10.258;2023-11-22T10:52:27;5.07;;;3.20;;
11731;SDS011;5922;53.734;10.258;2023-11-22T10:55:01;4.43;;;3.40;;
11731;SDS011;5922;53.734;10.258;2023-11-22T10:57:31;4.43;;;3.10;;
11731;SDS011;5922;53.734;10.258;2023-11-22T11:00:04;5.80;;;3.50;;
11731;SDS011;5922;53.734;10.258;2023-11-22T11:03:17;3.60;;;3.00;;
11731;SDS011;5922;53.734;10.258;2023-11-22T11:06:03;3.67;;;3.00;;
11731;SDS011;5922;53.734;10.258;2023-11-22T11:08:38;3.73;;;2.60;;
11731;SDS011;5922;53.734;10.258;2023-11-22T11:11:07;3.63;;;2.87;;
11731;SDS011;5922;53.734;10.258;2023-11-22T11:13:34;2.97;;;2.60;;
11731;SDS011;5922;53.734;10.258;2023-11-22T11:16:19;3.17;;;2.60;;
11731;SDS011;5922;53.734;10.258;2023-11-22T11:18:59;4.20;;;2.50;;
11731;SDS011;5922;53.734;10.258;2023-11-22T11:24:23;5.63;;;2.67;;
11731;SDS011;5922;53.734;10.258;2023-11-22T11:26:54;4.10;;;2.87;;
11731;SDS011;5922;53.734;10.258;2023-11-22T11:29:37;4.63;;;2.50;;
11731;SDS011;5922;53.734;10.258;2023-11-22T11:32:17;3.37;;;2.57;;
11731;SDS011;5922;53.734;10.258;2023-11-22T11:34:59;4.40;;;2.57;;
11731;SDS011;5922;53.734;10.258;2023-11-22T11:37:33;5.37;;;2.97;;
11731;SDS011;5922;53.734;10.258;2023-11-22T11:43:00;3.50;;;2.40;;
11731;SDS011;5922;53.734;10.258;2023-11-22T11:45:41;4.23;;;2.80;;
11731;SDS011;5922;53.734;10.258;2023-11-22T11:48:17;3.87;;;2.70;;
11731;SDS011;5922;53.734;10.258;2023-11-22T11:50:47;3.00;;;2.40;;
11731;SDS011;5922;53.734;10.258;2023-11-22T11:53:22;3.50;;;2.43;;
11731;SDS011;5922;53.734;10.258;2023-11-22T11:56:07;2.90;;;2.63;;
11731;SDS011;5922;53.734;10.258;2023-11-22T11:58:41;2.63;;;2.40;;
11731;SDS011;5922;53.734;10.258;2023-11-22T12:01:28;5.77;;;2.57;;
11731;SDS011;5922;53.734;10.258;2023-11-22T12:04:00;2.17;;;1.97;;
11731;SDS011;5922;53.734;10.258;2023-11-22T12:06:35;4.27;;;2.60;;
11731;SDS011;5922;53.734;10.258;2023-11-22T12:09:06;4.17;;;2.40;;
11731;SDS011;5922;53.734;10.258;2023-11-22T12:30:06;4.73;;;2.77;;
11731;SDS011;5922;53.734;10.258;2023-11-22T12:32:40;3.73;;;2.50;;
11731;SDS011;5922;53.734;10.258;2023-11-22T12:35:09;3.47;;;2.80;;
11731;SDS011;5922;53.734;10.258;2023-11-22T12:37:37;5.23;;;3.03;;
11731;SDS011;5922;53.734;10.258;2023-11-22T12:40:10;2.93;;;2.63;;
11731;SDS011;5922;53.734;10.258;2023-11-22T12:42:48;4.27;;;2.53;;
11731;SDS011;5922;53.734;10.258;2023-11-22T12:45:23;2.90;;;2.60;;
11731;SDS011;5922;53.734;10.258;2023-11-22T12:47:51;3.97;;;2.10;;
11731;SDS011;5922;53.734;10.258;2023-11-22T12:50:28;2.87;;;2.50;;
11731;SDS011;5922;53.734;10.258;2023-11-22T12:55:47;4.53;;;3.20;;
11731;SDS011;5922;53.734;10.258;2023-11-22T12:58:14;8.00;;;3.10;;
11731;SDS011;5922;53.734;10.258;2023-11-22T13:20:24;2.63;;;2.30;;
11731;SDS011;5922;53.734;10.258;2023-11-22T13:22:52;2.50;;;2.30;;
11731;SDS011;5922;53.734;10.258;2023-11-22T13:25:19;3.97;;;2.40;;
11731;SDS011;5922;53.734;10.258;2023-11-22T13:27:48;4.07;;;2.90;;
11731;SDS011;5922;53.734;10.258;2023-11-22T13:30:24;2.60;;;2.30;;
11731;SDS011;5922;53.734;10.258;2023-11-22T13:32:52;3.27;;;2.30;;
11731;SDS011;5922;53.734;10.258;2023-11-22T13:35:27;4.77;;;2.40;;
11731;SDS011;5922;53.734;10.258;2023-11-22T13:38:17;2.37;;;2.13;;
11731;SDS011;5922;53.734;10.258;2023-11-22T13:41:02;4.53;;;2.63;;
11731;SDS011;5922;53.734;10.258;2023-11-22T13:43:45;4.60;;;3.03;;
11731;SDS011;5922;53.734;10.258;2023-11-22T13:46:28;3.50;;;2.73;;
11731;SDS011;5922;53.734;10.258;2023-11-22T13:49:00;3.53;;;2.53;;
11731;SDS011;5922;53.734;10.258;2023-11-22T13:51:33;4.53;;;2.67;;
11731;SDS011;5922;53.734;10.258;2023-11-22T13:54:02;5.80;;;2.70;;
11731;SDS011;5922;53.734;10.258;2023-11-22T13:56:39;4.23;;;2.57;;
11731;SDS011;5922;53.734;10.258;2023-11-22T13:59:13;3.77;;;2.40;;
11731;SDS011;5922;53.734;10.258;2023-11-22T14:01:52;3.83;;;2.50;;
11731;SDS011;5922;53.734;10.258;2023-11-22T14:04:25;3.90;;;2.13;;
11731;SDS011;5922;53.734;10.258;2023-11-22T14:06:58;2.43;;;2.10;;
11731;SDS011;5922;53.734;10.258;2023-11-22T14:09:33;2.40;;;2.20;;
11731;SDS011;5922;53.734;10.258;2023-11-22T14:12:17;2.20;;;2.00;;
11731;SDS011;5922;53.734;10.258;2023-11-22T14:14:44;2.20;;;1.93;;
11731;SDS011;5922;53.734;10.258;2023-11-22T14:17:26;3.57;;;2.00;;
11731;SDS011;5922;53.734;10.258;2023-11-22T14:20:18;2.03;;;1.87;;
11731;SDS011;5922;53.734;10.258;2023-11-22T14:22:55;2.27;;;1.70;;
11731;SDS011;5922;53.734;10.258;2023-11-22T14:25:27;2.13;;;1.90;;
11731;SDS011;5922;53.734;10.258;2023-11-22T14:31:00;6.40;;;2.90;;
11731;SDS011;5922;53.734;10.258;2023-11-22T14:33:33;5.37;;;3.03;;
11731;SDS011;5922;53.734;10.258;2023-11-22T14:36:13;3.93;;;2.90;;
11731;SDS011;5922;53.734;10.258;2023-11-22T14:39:00;3.83;;;2.53;;
11731;SDS011;5922;53.734;10.258;2023-11-22T14:41:41;3.50;;;1.90;;
11731;SDS011;5922;53.734;10.258;2023-11-22T14:44:12;2.60;;;2.40;;
11731;SDS011;5922;53.734;10.258;2023-11-22T14:46:48;2.40;;;2.20;;
11731;SDS011;5922;53.734;10.258;2023-11-22T14:51:58;3.10;;;2.10;;
11731;SDS011;5922;53.734;10.258;2023-11-22T14:57:19;5.80;;;2.10;;
11731;SDS011;5922;53.734;10.258;2023-11-22T14:59:49;7.07;;;3.70;;
11731;SDS011;5922;53.734;10.258;2023-11-22T15:02:25;9.07;;;5.30;;
11731;SDS011;5922;53.734;10.258;2023-11-22T15:05:07;5.47;;;3.17;;
11731;SDS011;5922;53.734;10.258;2023-11-22T15:07:43;4.07;;;2.77;;
11731;SDS011;5922;53.734;10.258;2023-11-22T15:10:21;4.57;;;3.17;;
11731;SDS011;5922;53.734;10.258;2023-11-22T15:41:59;1.93;;;1.73;;
11731;SDS011;5922;53.734;10.258;2023-11-22T15:44:26;4.33;;;2.50;;
11731;SDS011;5922;53.734;10.258;2023-11-22T15:46:54;2.60;;;2.00;;
11731;SDS011;5922;53.734;10.258;2023-11-22T15:49:21;2.03;;;1.83;;
11731;SDS011;5922;53.734;10.258;2023-11-22T16:07:17;3.13;;;2.77;;
11731;SDS011;5922;53.734;10.258;2023-11-22T16:09:48;9.70;;;5.70;;
11731;SDS011;5922;53.734;10.258;2023-11-22T16:12:16;4.40;;;2.90;;
11731;SDS011;5922;53.734;10.258;2023-11-22T16:15:03;9.03;;;5.97;;
11731;SDS011;5922;53.734;10.258;2023-11-22T16:17:42;6.20;;;3.13;;
11731;SDS011;5922;53.734;10.258;2023-11-22T16:20:10;6.67;;;4.60;;
11731;SDS011;5922;53.734;10.258;2023-11-22T16:22:45;6.67;;;4.97;;
11731;SDS011;5922;53.734;10.258;2023-11-22T16:25:17;4.27;;;3.20;;
11731;SDS011;5922;53.734;10.258;2023-11-22T16:27:48;3.73;;;2.73;;
11731;SDS011;5922;53.734;10.258;2023-11-22T16:33:22;8.73;;;3.40;;
11731;SDS011;5922;53.734;10.258;2023-11-22T16:36:00;9.97;;;5.90;;
11731;SDS011;5922;53.734;10.258;2023-11-22T16:38:32;7.47;;;5.20;;
11731;SDS011;5922;53.734;10.258;2023-11-22T16:41:05;6.20;;;4.40;;
11731;SDS011;5922;53.734;10.258;2023-11-22T16:43:54;7.00;;;4.23;;
11731;SDS011;5922;53.734;10.258;2023-11-22T16:46:26;6.10;;;4.10;;
11731;SDS011;5922;53.734;10.258;2023-11-22T16:48:54;5.67;;;3.80;;
11731;SDS011;5922;53.734;10.258;2023-11-22T16:51:22;4.80;;;3.67;;
11731;SDS011;5922;53.734;10.258;2023-11-22T16:53:51;5.80;;;4.60;;
11731;SDS011;5922;53.734;10.258;2023-11-22T16:56:18;4.33;;;3.70;;
11731;SDS011;5922;53.734;10.258;2023-11-22T16:58:45;5.33;;;3.23;;
11731;SDS011;5922;53.734;10.258;2023-11-22T17:01:14;5.83;;;4.23;;
11731;SDS011;5922;53.734;10.258;2023-11-22T17:03:41;5.97;;;4.00;;
11731;SDS011;5922;53.734;10.258;2023-11-22T17:06:10;5.97;;;3.43;;
11731;SDS011;5922;53.734;10.258;2023-11-22T17:08:38;3.93;;;3.30;;
11731;SDS011;5922;53.734;10.258;2023-11-22T17:11:05;4.63;;;3.33;;
11731;SDS011;5922;53.734;10.258;2023-11-22T17:13:32;4.30;;;3.43;;